Time;durP1;ratioP1;P1;durP2;ratioP2;P2;SDS_P1;SDS_P2;PMS_P1;PMS_P2;Temp;Humidity;BMP_temperature;BMP_pressure;BME280_temperature;BME280_humidity;BME280_pressure;Samples;Min_cycle;Max_cycle;Signal;HPM_P1;HPM_P2
2022/12/30 00:02:12;;;;;;;4.57;0.98;;;;;;;6.78;100.00;97831.53;15289385;19;20022;-55
2022/12/30 00:07:36;;;;;;;2.97;0.90;;;;;;;6.84;100.00;97839.97;15280146;19;20006;-57
2022/12/30 00:35:36;;;;;;;3.35;1.00;;;;;;;6.55;100.00;97870.41;15288976;19;20025;-56
2022/12/30 00:46:40;;;;;;;3.13;0.90;;;;;;;6.47;100.00;97874.69;15292602;19;20077;-53
2022/12/30 00:57:45;;;;;;;4.28;1.10;;;;;;;6.54;100.00;97882.09;15291010;19;20021;-56
2022/12/30 01:03:09;;;;;;;4.25;1.10;;;;;;;6.47;100.00;97901.44;15286769;19;20082;-52
2022/12/30 01:08:37;;;;;;;4.43;1.13;;;;;;;6.41;100.00;97914.56;15282387;19;20073;-54
2022/12/30 01:14:01;;;;;;;3.75;0.98;;;;;;;6.34;100.00;97919.66;15282630;19;20017;-56
2022/12/30 01:19:26;;;;;;;3.47;0.88;;;;;;;6.26;100.00;97932.94;15288447;19;20017;-55
2022/12/30 01:24:53;;;;;;;2.63;1.00;;;;;;;6.11;100.00;97936.06;15280826;19;20021;-51
2022/12/30 01:30:18;;;;;;;4.47;1.05;;;;;;;6.01;100.00;97935.25;15286338;19;20082;-56
2022/12/30 01:35:42;;;;;;;3.28;1.13;;;;;;;5.90;100.00;97940.75;15282480;19;20021;-53
2022/12/30 01:41:10;;;;;;;3.53;1.10;;;;;;;5.77;100.00;97949.91;15275617;19;20013;-55
2022/12/30 01:46:39;;;;;;;3.58;1.15;;;;;;;5.72;100.00;97968.19;15282474;19;20373;-55
2022/12/30 01:52:04;;;;;;;3.35;1.00;;;;;;;5.85;100.00;97968.72;15286360;19;20022;-55
2022/12/30 01:57:32;;;;;;;3.90;0.88;;;;;;;5.87;100.00;97971.28;15287756;19;20074;-56
2022/12/30 02:02:58;;;;;;;4.15;1.30;;;;;;;5.90;100.00;97970.97;15281632;19;20021;-54
2022/12/30 02:08:25;;;;;;;3.88;1.00;;;;;;;5.92;100.00;97989.56;15285799;19;20024;-56
2022/12/30 02:13:53;;;;;;;6.28;1.67;;;;;;;6.04;100.00;97992.94;15276661;19;20028;-56
2022/12/30 02:19:59;;;;;;;6.15;1.50;;;;;;;6.10;100.00;98000.41;15283582;19;20018;-52
2022/12/30 02:25:46;;;;;;;5.90;1.10;;;;;;;5.96;100.00;97982.94;15279933;19;20021;-53
2022/12/30 02:31:38;;;;;;;6.78;1.40;;;;;;;5.98;100.00;97999.69;15280684;19;20070;-55
2022/12/30 02:37:13;;;;;;;;;;;;;;;5.86;100.00;98013.19;15283672;19;20022;-52
2022/12/30 02:48:26;;;;;;;5.40;1.40;;;;;;;5.76;100.00;98015.03;15270060;19;20025;-55
2022/12/30 02:53:51;;;;;;;3.90;1.05;;;;;;;5.79;100.00;98030.81;15281980;19;20017;-53
2022/12/30 03:05:04;;;;;;;2.90;1.08;;;;;;;5.80;100.00;98045.00;15278859;19;20443;-52
2022/12/30 03:16:21;;;;;;;4.65;1.10;;;;;;;5.70;100.00;98045.84;15296853;19;20106;-53
2022/12/30 03:21:50;;;;;;;5.67;1.20;;;;;;;5.84;100.00;98054.44;15282964;19;20018;-56
2022/12/30 03:27:20;;;;;;;4.50;1.25;;;;;;;5.81;100.00;98063.59;15297943;19;20021;-57
2022/12/30 03:32:45;;;;;;;2.95;0.98;;;;;;;5.75;100.00;98060.63;15295556;19;20025;-55
2022/12/30 03:38:21;;;;;;;3.42;1.10;;;;;;;5.80;100.00;98072.59;15290722;19;20030;-55
2022/12/30 03:43:47;;;;;;;3.35;1.00;;;;;;;5.88;100.00;98079.06;15290458;19;20021;-58
2022/12/30 03:49:11;;;;;;;3.55;1.20;;;;;;;5.93;100.00;98084.84;15287913;19;20681;-59
2022/12/30 03:54:39;;;;;;;3.80;1.10;;;;;;;5.93;100.00;98082.16;15291096;19;20433;-57
2022/12/30 04:00:06;;;;;;;3.38;1.08;;;;;;;5.94;100.00;98083.84;15293900;19;20042;-57
2022/12/30 04:05:31;;;;;;;6.03;1.10;;;;;;;5.91;100.00;98076.94;15289176;19;20018;-53
2022/12/30 04:10:59;;;;;;;4.78;1.20;;;;;;;5.94;100.00;98084.69;15290188;19;20015;-53
2022/12/30 04:16:24;;;;;;;5.88;1.40;;;;;;;5.91;100.00;98092.16;15293698;19;20021;-57
2022/12/30 04:21:48;;;;;;;5.18;1.05;;;;;;;6.16;100.00;98080.06;15280099;19;20021;-53
2022/12/30 04:27:17;;;;;;;4.72;1.20;;;;;;;6.15;100.00;98103.31;15285852;19;20025;-57
2022/12/30 04:32:41;;;;;;;3.58;1.20;;;;;;;6.17;100.00;98116.53;15291700;19;20089;-55
2022/12/30 04:38:12;;;;;;;6.00;1.10;;;;;;;6.13;100.00;98118.66;15289961;19;20018;-55
2022/12/30 04:43:40;;;;;;;2.63;1.20;;;;;;;6.12;100.00;98119.63;15290380;19;20036;-55
2022/12/30 04:49:04;;;;;;;3.75;1.20;;;;;;;6.08;100.00;98122.72;15289540;19;20018;-57
2022/12/30 04:54:29;;;;;;;4.28;1.20;;;;;;;6.02;100.00;98126.81;15284609;19;20019;-54
2022/12/30 04:59:57;;;;;;;3.38;1.20;;;;;;;5.96;100.00;98138.00;15285678;19;20039;-52
2022/12/30 05:05:22;;;;;;;2.75;1.00;;;;;;;5.90;100.00;98135.91;15290351;19;20094;-54
2022/12/30 05:10:48;;;;;;;3.17;1.10;;;;;;;5.82;100.00;98153.47;15292492;19;20032;-52
2022/12/30 05:16:16;;;;;;;4.55;1.40;;;;;;;5.74;100.00;98164.00;15294175;19;20025;-49
2022/12/30 05:21:40;;;;;;;4.90;1.45;;;;;;;5.65;100.00;98164.84;15294976;19;20027;-55
2022/12/30 05:27:05;;;;;;;3.85;1.20;;;;;;;5.58;100.00;98163.69;15293436;19;20464;-51
2022/12/30 05:32:32;;;;;;;3.72;1.10;;;;;;;5.44;100.00;98152.41;15284181;19;20022;-56
2022/12/30 05:38:04;;;;;;;4.05;1.10;;;;;;;5.21;100.00;98168.63;15281670;19;20340;-51
2022/12/30 05:43:29;;;;;;;2.97;1.20;;;;;;;5.09;100.00;98180.38;15281518;19;20021;-52
2022/12/30 05:48:56;;;;;;;3.83;1.20;;;;;;;4.90;100.00;98199.78;15283630;19;20042;-54
2022/12/30 05:54:21;;;;;;;4.93;1.23;;;;;;;4.75;100.00;98210.78;15283751;19;20021;-52
2022/12/30 05:59:45;;;;;;;7.68;1.50;;;;;;;4.67;100.00;98207.06;15272914;19;20026;-55
2022/12/30 06:05:13;;;;;;;4.07;1.38;;;;;;;4.69;100.00;98230.00;15277222;19;20029;-55
2022/12/30 06:10:37;;;;;;;6.55;1.48;;;;;;;4.63;100.00;98236.69;15276505;19;20011;-58
2022/12/30 06:16:02;;;;;;;6.45;1.38;;;;;;;4.56;100.00;98230.16;15282269;19;20666;-56
2022/12/30 06:21:30;;;;;;;4.50;1.30;;;;;;;4.57;100.00;98229.19;15274096;19;20032;-53
2022/12/30 06:26:54;;;;;;;7.40;1.40;;;;;;;4.58;100.00;98246.88;15275549;19;20360;-54
2022/12/30 06:32:18;;;;;;;3.67;1.25;;;;;;;4.59;100.00;98242.38;15268078;19;20037;-57
2022/12/30 06:37:52;;;;;;;5.43;1.45;;;;;;;4.57;100.00;98247.03;15280297;19;20035;-56
2022/12/30 06:43:17;;;;;;;6.93;1.42;;;;;;;4.56;100.00;98246.16;15281822;19;20090;-51
2022/12/30 06:48:41;;;;;;;4.95;1.33;;;;;;;4.54;100.00;98237.44;15282698;19;20460;-55
2022/12/30 06:54:09;;;;;;;4.43;1.23;;;;;;;4.48;100.00;98232.63;15281160;19;20413;-55
2022/12/30 06:59:33;;;;;;;4.28;1.30;;;;;;;4.45;100.00;98239.06;15280987;19;20025;-51
2022/12/30 07:04:58;;;;;;;7.05;1.42;;;;;;;4.48;100.00;98245.97;15264713;19;20014;-54
2022/12/30 07:10:25;;;;;;;4.30;1.40;;;;;;;4.53;100.00;98257.06;15276687;19;20494;-57
2022/12/30 07:15:50;;;;;;;4.90;1.27;;;;;;;4.52;100.00;98270.56;15280672;19;20017;-54
2022/12/30 07:21:14;;;;;;;5.53;1.42;;;;;;;4.53;100.00;98286.41;15275156;19;20688;-54
2022/12/30 07:26:42;;;;;;;5.95;1.85;;;;;;;4.62;100.00;98301.69;15279643;19;20408;-53
2022/12/30 07:32:06;;;;;;;4.05;1.25;;;;;;;4.82;100.00;98288.50;15282424;19;20419;-55
2022/12/30 07:37:38;;;;;;;6.57;1.40;;;;;;;5.00;100.00;98286.13;15271136;19;20384;-50
2022/12/30 07:43:06;;;;;;;4.35;1.40;;;;;;;5.04;100.00;98292.03;15276026;19;20019;-64
2022/12/30 07:48:30;;;;;;;6.40;1.50;;;;;;;4.96;100.00;98291.84;15277338;19;20011;-53
2022/12/30 07:53:55;;;;;;;5.15;1.48;;;;;;;4.90;100.00;98304.72;15276075;19;20019;-50
2022/12/30 07:59:20;;;;;;;5.38;1.63;;;;;;;4.84;100.00;98304.38;15277490;19;20021;-52
2022/12/30 08:04:44;;;;;;;7.03;2.07;;;;;;;4.72;100.00;98296.44;15288354;19;20033;-56
2022/12/30 08:10:11;;;;;;;5.38;1.58;;;;;;;4.67;100.00;98311.13;14772079;19;10000272;-49
2022/12/30 08:15:39;;;;;;;5.05;1.70;;;;;;;4.60;100.00;98308.97;15290678;19;20007;-55
2022/12/30 08:21:04;;;;;;;5.13;1.63;;;;;;;4.58;100.00;98310.91;15285000;19;20015;-53
2022/12/30 08:26:31;;;;;;;5.32;1.33;;;;;;;4.61;100.00;98316.00;15287546;19;20014;-54
2022/12/30 08:31:59;;;;;;;5.10;1.55;;;;;;;4.63;100.00;98314.06;15283507;19;20049;-53
2022/12/30 08:37:24;;;;;;;5.40;1.40;;;;;;;4.67;100.00;98308.47;15288478;19;20348;-51
2022/12/30 08:42:48;;;;;;;6.07;2.00;;;;;;;4.74;100.00;98309.66;15276829;19;20115;-52
2022/12/30 08:48:16;;;;;;;6.13;1.70;;;;;;;4.82;100.00;98303.69;15288167;19;20033;-53
2022/12/30 08:53:40;;;;;;;6.10;1.60;;;;;;;4.91;100.00;98301.09;15289465;19;20021;-51
2022/12/30 08:59:05;;;;;;;4.75;1.50;;;;;;;5.04;100.00;98305.41;15288214;19;20024;-52
2022/12/30 09:04:36;;;;;;;4.80;1.38;;;;;;;5.17;100.00;98305.22;15286359;19;20032;-49
2022/12/30 09:10:01;;;;;;;4.75;1.40;;;;;;;5.30;100.00;98307.69;15283541;19;20090;-50
2022/12/30 09:15:26;;;;;;;5.15;1.50;;;;;;;5.45;100.00;98298.38;15274517;19;20511;-51
2022/12/30 09:20:54;;;;;;;2.80;1.40;;;;;;;5.59;100.00;98301.66;15286225;19;20098;-53
2022/12/30 09:26:20;;;;;;;3.30;1.80;;;;;;;5.69;100.00;98283.88;15283776;19;20025;-53
2022/12/30 09:31:45;;;;;;;5.20;1.52;;;;;;;5.79;100.00;98290.09;15280364;19;20092;-50
2022/12/30 09:37:12;;;;;;;5.47;1.60;;;;;;;5.91;100.00;98273.97;15284286;19;20017;-53
2022/12/30 09:48:23;;;;;;;5.18;1.52;;;;;;;6.17;100.00;98260.97;15277817;19;20018;-53
2022/12/30 09:53:56;;;;;;;5.18;1.83;;;;;;;6.29;100.00;98259.03;15283002;19;20070;-54
2022/12/30 09:59:23;;;;;;;3.97;1.45;;;;;;;6.44;100.00;98257.63;15283032;19;20021;-52
2022/12/30 10:04:48;;;;;;;3.50;1.38;;;;;;;6.57;100.00;98243.13;15282792;19;20020;-53
2022/12/30 10:10:20;;;;;;;5.50;1.50;;;;;;;6.70;100.00;98237.53;15278443;19;20345;-54
2022/12/30 10:15:59;;;;;;;3.70;1.20;;;;;;;6.86;100.00;98239.63;15275715;19;20014;-52
2022/12/30 10:21:35;;;;;;;5.40;1.40;;;;;;;6.96;100.00;98223.53;15275051;19;20050;-49
2022/12/30 10:27:06;;;;;;;3.63;1.30;;;;;;;7.06;100.00;98217.19;15280648;19;20020;-49
2022/12/30 10:32:34;;;;;;;4.20;1.50;;;;;;;7.15;100.00;98206.56;15281102;19;20026;-51
2022/12/30 10:38:06;;;;;;;4.20;1.40;;;;;;;7.22;100.00;98183.59;15279878;19;20420;-51
2022/12/30 10:43:47;;;;;;;4.67;1.40;;;;;;;7.33;100.00;98185.22;15277611;19;20074;-52
2022/12/30 10:49:30;;;;;;;5.78;1.77;;;;;;;7.39;100.00;98166.72;15275875;19;20039;-52
2022/12/30 10:54:55;;;;;;;7.05;1.48;;;;;;;7.43;100.00;98166.44;15269550;19;20370;-50
2022/12/30 11:00:25;;;;;;;5.70;1.70;;;;;;;7.49;100.00;98145.25;15278622;19;20492;-53
2022/12/30 11:05:50;;;;;;;5.68;1.70;;;;;;;7.51;100.00;98131.69;15275999;19;20031;-52
2022/12/30 11:11:17;;;;;;;4.25;1.30;;;;;;;7.56;100.00;98129.41;15272334;19;20020;-58
2022/12/30 11:16:44;;;;;;;5.28;1.50;;;;;;;7.57;100.00;98117.72;15278136;19;20018;-50
2022/12/30 11:22:13;;;;;;;4.80;1.40;;;;;;;7.65;100.00;98114.25;15268597;19;20019;-53
2022/12/30 11:27:43;;;;;;;5.40;1.35;;;;;;;7.67;100.00;98099.72;15272394;19;20017;-56
2022/12/30 11:33:14;;;;;;;5.27;1.50;;;;;;;7.74;100.00;98099.09;15277423;19;20026;-56
2022/12/30 11:38:47;;;;;;;4.57;1.40;;;;;;;7.83;100.00;98092.81;15289916;19;20032;-61
2022/12/30 11:44:17;;;;;;;4.25;1.30;;;;;;;7.81;100.00;98084.94;15289667;19;20015;-54
2022/12/30 11:49:47;;;;;;;4.45;1.30;;;;;;;7.81;100.00;98078.75;15290411;19;20039;-56
2022/12/30 11:55:22;;;;;;;3.80;1.30;;;;;;;7.77;100.00;98083.56;15275866;19;20021;-56
2022/12/30 12:00:48;;;;;;;4.53;1.35;;;;;;;7.81;100.00;98070.69;15286468;19;20022;-53
2022/12/30 12:06:15;;;;;;;5.35;1.45;;;;;;;7.84;100.00;98073.06;15288589;19;20470;-54
2022/12/30 12:11:47;;;;;;;4.45;1.45;;;;;;;7.87;100.00;98075.44;15285976;19;20020;-56
2022/12/30 12:17:34;;;;;;;4.43;1.60;;;;;;;7.81;100.00;98058.13;15290162;19;20020;-55
2022/12/30 12:23:11;;;;;;;3.97;1.40;;;;;;;7.88;100.00;98052.16;15288748;19;20380;-55
2022/12/30 12:28:36;;;;;;;6.55;1.30;;;;;;;7.97;100.00;98052.06;15275191;19;20037;-56
2022/12/30 12:34:08;;;;;;;3.13;1.30;;;;;;;7.97;100.00;98035.97;15286291;19;20355;-59
2022/12/30 12:39:55;;;;;;;2.83;1.20;;;;;;;8.04;100.00;98036.19;15285426;19;20359;-59
2022/12/30 12:45:33;;;;;;;4.03;1.30;;;;;;;8.09;100.00;98022.31;15286848;19;20364;-58
2022/12/30 12:51:11;;;;;;;3.30;1.10;;;;;;;8.23;100.00;98024.44;15285272;19;20014;-58
2022/12/30 12:56:52;;;;;;;3.97;1.10;;;;;;;8.25;100.00;98008.19;15282547;19;20017;-56
2022/12/30 13:02:26;;;;;;;;;;;;;;;8.21;100.00;98004.97;15282529;19;20020;-56
2022/12/30 13:08:20;;;;;;;5.57;1.25;;;;;;;8.27;100.00;97998.13;15284845;19;20392;-56
2022/12/30 13:13:56;;;;;;;4.88;1.13;;;;;;;8.36;100.00;97981.06;15285610;19;20014;-58
2022/12/30 13:19:24;;;;;;;2.70;1.00;;;;;;;8.56;100.00;97976.38;15283131;19;20074;-57
2022/12/30 13:24:53;;;;;;;3.30;1.10;;;;;;;8.72;100.00;97959.50;15283646;19;20759;-58
2022/12/30 13:30:22;;;;;;;4.50;1.17;;;;;;;8.71;100.00;97952.44;15277615;19;20021;-56
2022/12/30 13:36:03;;;;;;;2.38;0.80;;;;;;;8.63;100.00;97953.25;15278185;19;20018;-57
2022/12/30 13:41:59;;;;;;;3.50;1.00;;;;;;;8.59;100.00;97938.47;15280379;19;20021;-54
2022/12/30 13:47:41;;;;;;;2.45;0.85;;;;;;;8.46;100.00;97925.47;15283001;19;20019;-54
2022/12/30 13:53:26;;;;;;;1.60;0.90;;;;;;;8.40;100.00;97909.16;15283145;19;20086;-57
2022/12/30 13:58:56;;;;;;;2.15;0.90;;;;;;;8.32;100.00;97897.34;15280710;19;20345;-56
2022/12/30 14:04:46;;;;;;;3.85;1.00;;;;;;;8.25;100.00;97882.91;15268105;19;20435;-57
2022/12/30 14:10:48;;;;;;;3.05;0.90;;;;;;;8.15;100.00;97874.13;15280194;19;20029;-58
2022/12/30 14:16:45;;;;;;;3.30;0.90;;;;;;;8.01;100.00;97871.03;15282619;19;20039;-55
2022/12/30 14:22:13;;;;;;;2.03;0.70;;;;;;;7.93;100.00;97846.00;15280986;19;20030;-50
2022/12/30 14:27:47;;;;;;;3.58;0.90;;;;;;;7.82;100.00;97831.03;15281057;19;20361;-51
2022/12/30 14:33:16;;;;;;;2.72;0.90;;;;;;;7.68;100.00;97817.22;15275728;19;20030;-54
2022/12/30 14:38:56;;;;;;;1.45;0.60;;;;;;;7.55;100.00;97822.13;15272604;19;20121;-55
2022/12/30 14:44:32;;;;;;;2.23;0.77;;;;;;;7.41;100.00;97815.50;15281490;19;20020;-79
2022/12/30 14:50:00;;;;;;;1.70;0.60;;;;;;;7.29;100.00;97806.03;15291377;19;20037;-77
2022/12/30 14:55:32;;;;;;;1.52;0.55;;;;;;;7.16;100.00;97795.72;15292350;19;20057;-78
2022/12/30 15:00:57;;;;;;;1.70;0.67;;;;;;;7.07;100.00;97803.69;15299503;19;20018;-76
2022/12/30 15:06:28;;;;;;;1.08;0.57;;;;;;;7.02;100.00;97781.03;15268471;19;20014;-47
2022/12/30 15:12:01;;;;;;;1.50;0.60;;;;;;;6.96;100.00;97779.81;15282445;19;20018;-47
2022/12/30 15:17:37;;;;;;;2.65;0.80;;;;;;;6.91;100.00;97792.81;15295826;19;20371;-47
2022/12/30 15:23:03;;;;;;;2.17;0.90;;;;;;;6.84;100.00;97781.06;15291004;19;20033;-46
2022/12/30 15:28:30;;;;;;;2.25;0.80;;;;;;;6.77;100.00;97744.16;15291351;19;20671;-47
2022/12/30 15:33:56;;;;;;;1.83;0.60;;;;;;;6.72;100.00;97727.75;15287362;19;20494;-49
2022/12/30 15:39:26;;;;;;;1.33;0.60;;;;;;;6.69;100.00;97708.47;15287320;19;20010;-50
2022/12/30 15:44:55;;;;;;;0.98;0.60;;;;;;;6.62;100.00;97698.38;15282612;19;20024;-50
2022/12/30 15:50:40;;;;;;;1.20;0.55;;;;;;;6.58;100.00;97704.19;15294952;19;20010;-46
2022/12/30 15:56:06;;;;;;;1.38;0.70;;;;;;;6.54;100.00;97697.44;15291628;19;20014;-47
2022/12/30 16:01:43;;;;;;;1.45;0.80;;;;;;;6.52;100.00;97702.16;15289626;19;20098;-45
2022/12/30 16:07:33;;;;;;;1.30;0.70;;;;;;;6.48;100.00;97686.38;15288183;19;20014;-46
2022/12/30 16:13:00;;;;;;;0.70;0.50;;;;;;;6.50;100.00;97688.06;15279147;19;20022;-49
2022/12/30 16:18:29;;;;;;;0.90;0.70;;;;;;;6.50;100.00;97688.06;15289978;19;20024;-49
2022/12/30 16:23:55;;;;;;;1.25;0.50;;;;;;;6.51;100.00;97679.88;15288755;19;20022;-46
2022/12/30 16:29:26;;;;;;;1.42;0.52;;;;;;;6.54;100.00;97673.38;15293473;19;20022;-44
2022/12/30 16:34:54;;;;;;;1.57;0.57;;;;;;;6.56;100.00;97666.03;15291374;19;20010;-47
2022/12/30 16:40:25;;;;;;;0.73;0.50;;;;;;;6.59;100.00;97661.22;15295889;19;20031;-46
2022/12/30 16:45:51;;;;;;;0.80;0.80;;;;;;;6.61;100.00;97661.06;15284644;19;20015;-46
2022/12/30 16:51:26;;;;;;;0.70;0.60;;;;;;;6.65;100.00;97666.94;15289837;19;20017;-45
2022/12/30 16:56:52;;;;;;;0.50;0.50;;;;;;;6.70;100.00;97665.50;15295092;19;20018;-45
2022/12/30 17:02:26;;;;;;;0.60;0.60;;;;;;;6.72;100.00;97652.78;15290723;19;20015;-45
2022/12/30 17:08:00;;;;;;;0.70;0.50;;;;;;;6.72;100.00;97634.06;15288544;19;20018;-47
2022/12/30 17:13:28;;;;;;;1.70;0.60;;;;;;;6.74;100.00;97637.44;15288282;19;20010;-44
2022/12/30 17:18:54;;;;;;;0.50;0.50;;;;;;;6.82;100.00;97639.28;15288305;19;20021;-47
2022/12/30 17:24:22;;;;;;;1.17;0.40;;;;;;;6.89;100.00;97652.91;15288919;19;20378;-48
2022/12/30 17:29:47;;;;;;;0.60;0.60;;;;;;;6.92;100.00;97649.91;15288102;19;20035;-50
2022/12/30 17:35:21;;;;;;;0.40;0.40;;;;;;;6.99;100.00;97660.84;15287700;19;20025;-47
2022/12/30 17:40:48;;;;;;;0.73;0.70;;;;;;;7.02;100.00;97650.66;15283922;19;20458;-45
2022/12/30 17:46:13;;;;;;;0.50;0.50;;;;;;;7.09;100.00;97648.19;15283844;19;20018;-46
2022/12/30 17:51:38;;;;;;;0.50;0.50;;;;;;;7.14;100.00;97627.13;15277722;19;20078;-46
2022/12/30 17:57:05;;;;;;;0.52;0.50;;;;;;;7.21;100.00;97628.16;15283139;19;20414;-46
2022/12/30 18:02:30;;;;;;;0.50;0.50;;;;;;;7.27;100.00;97624.00;15281162;19;20360;-46
2022/12/30 18:08:01;;;;;;;0.43;0.43;;;;;;;7.33;100.00;97615.34;15280095;19;20628;-45
2022/12/30 18:13:29;;;;;;;0.77;0.70;;;;;;;7.37;100.00;97608.63;15278523;19;20025;-47
2022/12/30 18:18:54;;;;;;;0.40;0.40;;;;;;;7.39;100.00;97600.44;15275790;19;20615;-45
2022/12/30 18:24:18;;;;;;;1.65;0.70;;;;;;;7.37;100.00;97614.00;15274500;19;20376;-49
2022/12/30 18:29:46;;;;;;;0.70;0.68;;;;;;;7.28;100.00;97620.31;15278283;19;20014;-47
2022/12/30 18:35:11;;;;;;;0.95;0.73;;;;;;;7.21;100.00;97617.44;15274895;19;20038;-49
2022/12/30 18:40:36;;;;;;;2.45;0.80;;;;;;;7.16;100.00;97621.59;15280533;19;20019;-49
2022/12/30 18:46:09;;;;;;;1.42;0.90;;;;;;;7.13;100.00;97616.53;15277158;19;20018;-47
2022/12/30 18:51:33;;;;;;;;;;;;;;;7.12;100.00;97598.78;15274199;19;20020;-49
2022/12/30 18:56:57;;;;;;;1.00;1.00;;;;;;;7.13;100.00;97587.09;15280370;19;19914;-48
2022/12/30 19:02:25;;;;;;;1.10;0.70;;;;;;;7.17;100.00;97577.75;15283154;19;20018;-48
2022/12/30 19:07:56;;;;;;;1.23;0.90;;;;;;;7.24;100.00;97586.81;15282803;19;20053;-48
2022/12/30 19:13:37;;;;;;;1.15;0.90;;;;;;;7.29;100.00;97586.34;15283184;19;20020;-46
2022/12/30 19:19:07;;;;;;;1.58;0.90;;;;;;;7.34;100.00;97589.38;15284671;19;20014;-51
2022/12/30 19:24:33;;;;;;;1.60;0.93;;;;;;;7.45;100.00;97564.94;15277960;19;20467;-48
2022/12/30 19:29:58;;;;;;;0.70;0.70;;;;;;;7.55;100.00;97564.81;15276530;19;20015;-46
2022/12/30 19:35:27;;;;;;;1.20;0.75;;;;;;;7.65;100.00;97573.56;15278771;19;20102;-45
2022/12/30 19:40:53;;;;;;;0.75;0.70;;;;;;;7.70;100.00;97571.22;15282287;19;20018;-49
2022/12/30 19:46:19;;;;;;;1.92;0.77;;;;;;;7.70;100.00;97573.06;15279843;19;20448;-49
2022/12/30 19:51:47;;;;;;;0.52;0.52;;;;;;;7.69;100.00;97577.59;15281444;19;20007;-47
2022/12/30 19:57:12;;;;;;;0.50;0.50;;;;;;;7.70;100.00;97573.88;15281274;19;20074;-46
2022/12/30 20:02:36;;;;;;;0.60;0.60;;;;;;;7.75;100.00;97568.06;15281005;19;20014;-44
2022/12/30 20:08:10;;;;;;;0.32;0.32;;;;;;;7.81;100.00;97545.94;15286632;19;20028;-47
2022/12/30 20:13:36;;;;;;;0.43;0.40;;;;;;;7.89;100.00;97550.47;15283583;19;20363;-46
2022/12/30 20:19:02;;;;;;;0.30;0.30;;;;;;;7.97;100.00;97560.38;15288782;19;20010;-47
2022/12/30 20:24:31;;;;;;;0.32;0.32;;;;;;;8.06;100.00;97561.22;15284652;19;20014;-46
2022/12/30 20:29:58;;;;;;;0.30;0.30;;;;;;;8.17;100.00;97563.59;15280116;19;20014;-49
2022/12/30 20:35:23;;;;;;;0.47;0.30;;;;;;;8.33;100.00;97574.31;15277770;19;20034;-46
2022/12/30 20:40:51;;;;;;;0.28;0.28;;;;;;;8.44;100.00;97585.72;15288612;19;20455;-82
2022/12/30 20:46:19;;;;;;;0.20;0.20;;;;;;;8.46;100.00;97591.75;15309328;19;20014;-82
2022/12/30 20:51:43;;;;;;;0.63;0.30;;;;;;;8.49;100.00;97594.13;15315824;19;20033;-82
2022/12/30 20:57:10;;;;;;;0.10;0.10;;;;;;;8.56;100.00;97595.13;15317879;19;20021;-81
2022/12/30 21:02:35;;;;;;;0.30;0.30;;;;;;;8.64;100.00;97592.44;15302725;19;20018;-81
2022/12/30 21:08:00;;;;;;;0.20;0.20;;;;;;;8.69;100.00;97618.78;15287205;19;20051;-81
2022/12/30 21:13:27;;;;;;;0.10;0.10;;;;;;;8.73;100.00;97621.97;15308432;19;20019;-81
2022/12/30 21:19:00;;;;;;;0.95;0.20;;;;;;;8.83;100.00;97611.88;15319413;19;20010;-81
2022/12/30 21:24:24;;;;;;;0.57;0.20;;;;;;;8.89;100.00;97631.84;15314546;19;20014;-81
2022/12/30 21:29:51;;;;;;;0.50;0.20;;;;;;;8.92;100.00;97651.16;15316785;19;20018;-80
2022/12/30 21:35:17;;;;;;;0.10;0.10;;;;;;;8.89;100.00;97643.44;15305997;19;20050;-81
2022/12/30 22:03:36;;;;;;;0.10;0.10;;;;;;;8.90;100.00;97665.78;15348116;19;20010;-82
2022/12/30 22:09:01;;;;;;;0.20;0.10;;;;;;;8.92;100.00;97680.69;15321987;19;20014;-81
2022/12/30 22:14:26;;;;;;;0.10;0.10;;;;;;;8.97;100.00;97688.25;15314443;19;20031;-82
2022/12/30 22:19:53;;;;;;;0.15;0.15;;;;;;;8.99;100.00;97678.19;15342430;19;20011;-80
2022/12/30 22:25:20;;;;;;;0.10;0.10;;;;;;;8.97;100.00;97692.81;15350804;19;20032;-80
2022/12/30 22:30:45;;;;;;;0.10;0.10;;;;;;;8.97;100.00;97684.75;15356447;19;20010;-80
2022/12/30 22:36:12;;;;;;;0.73;0.10;;;;;;;8.94;100.00;97686.75;15357902;19;20014;-79
2022/12/30 22:41:58;;;;;;;0.20;0.20;;;;;;;8.97;100.00;97700.84;15358091;19;20018;-79
2022/12/30 22:47:23;;;;;;;0.20;0.20;;;;;;;8.96;100.00;97696.50;15362541;19;20003;-81
2022/12/30 22:52:52;;;;;;;0.10;0.10;;;;;;;9.01;100.00;97670.78;15361111;19;20132;-80
2022/12/30 22:58:23;;;;;;;0.20;0.20;;;;;;;9.02;100.00;97682.38;15342474;19;20031;-82
2022/12/30 23:03:48;;;;;;;0.20;0.20;;;;;;;9.07;100.00;97698.84;15308496;19;20614;-82
2022/12/30 23:09:15;;;;;;;0.10;0.10;;;;;;;9.14;100.00;97704.38;15304148;19;20110;-82
2022/12/30 23:20:18;;;;;;;0.10;0.10;;;;;;;9.25;100.00;97723.66;15299780;19;20073;-82
2022/12/30 23:25:45;;;;;;;0.20;0.10;;;;;;;9.32;100.00;97734.56;15296530;19;20035;-81
2022/12/30 23:31:11;;;;;;;0.22;0.10;;;;;;;9.34;100.00;97731.72;15304297;19;20501;-81
2022/12/30 23:36:39;;;;;;;0.05;0.05;;;;;;;9.36;100.00;97724.31;15314898;19;20121;-81
2022/12/30 23:42:06;;;;;;;0.05;0.05;;;;;;;9.40;100.00;97715.75;15303098;19;20013;-81
2022/12/30 23:47:32;;;;;;;0.10;0.10;;;;;;;9.47;100.00;97707.81;15306784;19;20017;-81
2022/12/30 23:52:56;;;;;;;0.10;0.10;;;;;;;9.49;100.00;97707.66;15306095;19;20013;-82
2022/12/30 23:58:23;;;;;;;0.10;0.10;;;;;;;9.54;100.00;97727.66;15310014;19;20007;-82
